createdAt,value
2018-06-29T00:01:21.558Z,96911.39
2018-06-29T00:03:50.840Z,96909.23
2018-06-29T00:06:20.048Z,96910.52
2018-06-29T00:08:49.236Z,96920.34
2018-06-29T00:11:18.448Z,96919.06
2018-06-29T00:13:48.164Z,96914.37
2018-06-29T00:16:17.344Z,96911.84
2018-06-29T00:18:46.575Z,96913.56
2018-06-29T00:21:15.777Z,96908.44
2018-06-29T00:23:45.005Z,96911.00
2018-06-29T00:26:14.187Z,96905.89
2018-06-29T00:28:43.418Z,96899.89
2018-06-29T00:31:12.653Z,96898.17
2018-06-29T00:33:41.827Z,96892.22
2018-06-29T00:36:11.016Z,96887.11
2018-06-29T00:38:40.396Z,96892.22
2018-06-29T00:41:09.625Z,96893.95
2018-06-29T00:43:38.938Z,96893.14
2018-06-29T00:46:08.180Z,96894.82
2018-06-29T00:48:37.358Z,96891.43
2018-06-29T00:51:06.730Z,96902.94
2018-06-29T00:53:35.957Z,96905.09
2018-06-29T00:56:05.198Z,96908.48
2018-06-29T00:58:34.448Z,96899.94
2018-06-29T01:01:03.668Z,96894.78
2018-06-29T01:03:32.893Z,96890.50
2018-06-29T01:06:02.118Z,96887.11
2018-06-29T01:08:31.334Z,96888.83
2018-06-29T01:11:00.560Z,96880.33
2018-06-29T01:13:29.854Z,96882.03
2018-06-29T01:15:59.060Z,96887.15
2018-06-29T01:18:28.223Z,96887.59
2018-06-29T01:20:57.470Z,96889.75
2018-06-29T01:23:26.724Z,96888.04
2018-06-29T01:25:56.022Z,96893.98
2018-06-29T01:28:25.265Z,96900.81
2018-06-29T01:30:54.627Z,96897.40
2018-06-29T01:33:23.887Z,96890.98
2018-06-29T01:35:53.106Z,96873.48
2018-06-29T01:38:22.292Z,96876.92
2018-06-29T01:40:51.486Z,96882.48
2018-06-29T01:43:20.954Z,96887.19
2018-06-29T01:45:50.175Z,96890.17
2018-06-29T01:48:19.441Z,96887.19
2018-06-29T01:50:48.685Z,96895.24
2018-06-29T01:53:18.006Z,96887.98
2018-06-29T01:55:47.551Z,96889.27
2018-06-29T01:58:16.848Z,96890.09
2018-06-29T02:00:46.043Z,96885.83
2018-06-29T02:03:15.236Z,96882.87
2018-06-29T02:05:44.680Z,96874.36
2018-06-29T02:08:13.896Z,96875.23
2018-06-29T02:10:43.179Z,96879.92
2018-06-29T02:13:12.412Z,96878.64
2018-06-29T02:15:41.694Z,96866.73
2018-06-29T02:18:11.026Z,96873.53
2018-06-29T02:20:40.231Z,96865.00
2018-06-29T02:23:09.452Z,96866.73
2018-06-29T02:25:38.628Z,96861.62
2018-06-29T02:28:08.110Z,96866.74
2018-06-29T02:30:37.364Z,96868.90
2018-06-29T02:33:06.648Z,96866.78
2018-06-29T02:35:35.950Z,96868.06
2018-06-29T02:38:05.738Z,96865.95
2018-06-29T02:40:34.944Z,96858.27
2018-06-29T02:43:04.214Z,96848.89
2018-06-29T02:45:33.396Z,96848.89
2018-06-29T02:48:02.620Z,96847.20
2018-06-29T02:50:31.836Z,96842.94
2018-06-29T02:53:01.023Z,96836.98
2018-06-29T02:55:30.234Z,96832.71
2018-06-29T02:57:59.452Z,96843.38
2018-06-29T03:00:28.698Z,96839.52
2018-06-29T03:02:57.842Z,96843.77
2018-06-29T03:05:27.048Z,96843.38
2018-06-29T03:07:56.231Z,96831.03
2018-06-29T03:10:25.452Z,96830.16
2018-06-29T03:12:54.725Z,96838.26
2018-06-29T03:15:23.907Z,96843.81
2018-06-29T03:17:53.104Z,96841.27
2018-06-29T03:20:22.337Z,96855.73
2018-06-29T03:22:51.586Z,96851.45
2018-06-29T03:25:20.803Z,96853.16
2018-06-29T03:27:50.108Z,96852.68
2018-06-29T03:30:19.426Z,96861.19
2018-06-29T03:32:48.634Z,96860.78
2018-06-29T03:35:17.930Z,96865.90
2018-06-29T03:37:47.108Z,96859.91
2018-06-29T03:40:16.662Z,96853.11
2018-06-29T03:42:45.953Z,96851.00
2018-06-29T03:45:15.182Z,96855.67
2018-06-29T03:47:44.352Z,96847.56
2018-06-29T03:50:13.577Z,96847.59
2018-06-29T03:52:42.791Z,96840.33
2018-06-29T03:55:11.991Z,96836.89
2018-06-29T03:57:41.294Z,96831.37
2018-06-29T04:00:10.564Z,96835.17
2018-06-29T04:02:39.808Z,96833.94
2018-06-29T04:05:09.079Z,96831.78
2018-06-29T04:07:38.327Z,96833.05
2018-06-29T04:10:07.572Z,96836.06
2018-06-29T04:12:36.933Z,96839.05
2018-06-29T04:15:06.751Z,96841.99
2018-06-29T04:17:35.971Z,96840.23
2018-06-29T04:20:05.721Z,96839.41
2018-06-29T04:22:34.963Z,96830.00
2018-06-29T04:25:05.816Z,96831.72
2018-06-29T04:27:35.075Z,96824.02
2018-06-29T04:30:04.569Z,96821.04
2018-06-29T04:32:33.770Z,96829.11
2018-06-29T04:35:02.994Z,96831.67
2018-06-29T04:37:32.225Z,96826.55
2018-06-29T04:40:01.575Z,96822.27
2018-06-29T04:42:30.839Z,96827.34
2018-06-29T04:45:00.028Z,96823.98
2018-06-29T04:47:29.196Z,96824.38
2018-06-29T04:49:58.411Z,96831.17
2018-06-29T04:52:27.652Z,96830.73
2018-06-29T04:54:56.856Z,96830.66
2018-06-29T04:57:26.291Z,96838.31
2018-06-29T04:59:55.524Z,96834.90
2018-06-29T05:02:24.749Z,96832.34
2018-06-29T05:04:53.983Z,96830.61
2018-06-29T05:07:23.236Z,96828.04
2018-06-29T05:09:52.447Z,96824.16
2018-06-29T05:12:21.712Z,96826.20
2018-06-29T05:14:50.991Z,96822.75
2018-06-29T05:17:20.166Z,96823.50
2018-06-29T05:19:49.644Z,96821.70
2018-06-29T05:22:19.510Z,96823.35
2018-06-29T05:24:48.830Z,96826.69
2018-06-29T05:27:18.127Z,96826.69
2018-06-29T05:29:47.397Z,96829.63
2018-06-29T05:32:16.608Z,96832.13
2018-06-29T05:34:46.059Z,96828.19
2018-06-29T05:37:15.321Z,96828.61
2018-06-29T05:39:44.510Z,96831.16
2018-06-29T05:42:13.747Z,96831.50
2018-06-29T05:44:43.064Z,96826.32
2018-06-29T05:47:12.331Z,96816.88
2018-06-29T05:49:41.562Z,96822.28
2018-06-29T05:52:10.809Z,96833.66
2018-06-29T05:54:40.152Z,96839.59
2018-06-29T05:57:09.427Z,96834.80
2018-06-29T05:59:38.705Z,96826.50
2018-06-29T06:02:08.209Z,96828.84
2018-06-29T06:04:37.366Z,96842.39
2018-06-29T06:07:06.756Z,96836.38
2018-06-29T06:09:36.079Z,96845.78
2018-06-29T06:12:05.507Z,96838.91
2018-06-29T06:14:34.823Z,96845.72
2018-06-29T06:17:04.084Z,96847.36
2018-06-29T06:19:44.482Z,96848.22
2018-06-29T06:22:13.730Z,96856.34
2018-06-29T06:24:42.982Z,96843.09
2018-06-29T06:27:12.249Z,96847.73
2018-06-29T06:29:41.803Z,96854.86
2018-06-29T06:32:11.035Z,96857.33
2018-06-29T06:34:40.385Z,96859.03
2018-06-29T06:37:09.583Z,96862.52
2018-06-29T06:39:38.814Z,96859.27
2018-06-29T06:42:08.021Z,96860.05
2018-06-29T06:44:37.253Z,96856.53
2018-06-29T06:47:06.571Z,96859.80
2018-06-29T06:49:36.006Z,96859.63
2018-06-29T06:52:05.770Z,96861.23
2018-06-29T06:54:35.354Z,96856.13
2018-06-29T06:57:05.029Z,96855.28
2018-06-29T06:59:34.281Z,96857.73
2018-06-29T07:02:03.374Z,96854.71
2018-06-29T07:04:32.841Z,96854.64
2018-06-29T07:07:02.082Z,96852.40
2018-06-29T07:09:31.287Z,96850.72
2018-06-29T07:12:00.448Z,96852.36
2018-06-29T07:14:29.693Z,96853.86
2018-06-29T07:16:58.911Z,96861.55
2018-06-29T07:19:28.182Z,96856.42
2018-06-29T07:21:57.416Z,96855.28
2018-06-29T07:24:26.637Z,96855.95
2018-06-29T07:26:55.883Z,96852.54
2018-06-29T07:29:25.106Z,96848.30
2018-06-29T07:31:54.365Z,96853.03
2018-06-29T07:34:23.582Z,96853.89
2018-06-29T07:36:52.820Z,96854.75
2018-06-29T07:39:22.016Z,96854.81
2018-06-29T07:41:51.186Z,96858.66
2018-06-29T07:44:20.413Z,96849.22
2018-06-29T07:46:49.621Z,96853.42
2018-06-29T07:49:18.798Z,96849.91
2018-06-29T07:51:47.994Z,96844.73
2018-06-29T07:54:17.134Z,96852.86
2018-06-29T07:56:46.417Z,96848.58
2018-06-29T07:59:15.661Z,96846.30
2018-06-29T08:01:44.996Z,96846.12
2018-06-29T08:04:14.269Z,96855.73
2018-06-29T08:06:43.456Z,96855.05
2018-06-29T08:09:12.708Z,96850.72
2018-06-29T08:11:41.942Z,96853.52
2018-06-29T08:14:11.090Z,96860.26
2018-06-29T08:16:40.256Z,96847.13
2018-06-29T08:19:09.454Z,96845.84
2018-06-29T08:21:38.690Z,96836.44
2018-06-29T08:24:07.916Z,96838.02
2018-06-29T08:26:37.068Z,96830.58
2018-06-29T08:29:06.226Z,96831.92
2018-06-29T08:31:35.386Z,96833.48
2018-06-29T08:34:04.571Z,96846.30
2018-06-29T08:36:33.712Z,96838.49
2018-06-29T08:39:02.967Z,96837.48
2018-06-29T08:41:32.199Z,96843.16
2018-06-29T08:44:01.354Z,96855.98
2018-06-29T08:46:30.559Z,96854.59
2018-06-29T08:48:59.659Z,96844.87
2018-06-29T08:51:28.853Z,96854.45
2018-06-29T08:53:57.989Z,96853.93
2018-06-29T08:56:27.164Z,96859.50
2018-06-29T08:58:56.470Z,96849.78
2018-06-29T09:01:25.504Z,96854.34
2018-06-29T09:03:54.650Z,96842.66
2018-06-29T09:06:23.796Z,96848.11
2018-06-29T09:08:52.954Z,96841.09
2018-06-29T09:11:22.236Z,96840.51
2018-06-29T09:13:51.722Z,96839.72
2018-06-29T09:16:21.186Z,96839.38
2018-06-29T09:18:50.421Z,96841.34
2018-06-29T09:21:19.565Z,96848.77
2018-06-29T09:23:48.993Z,96854.89
2018-06-29T09:26:18.131Z,96848.77
2018-06-29T09:28:47.263Z,96842.59
2018-06-29T09:31:16.480Z,96839.68
2018-06-29T09:33:45.696Z,96841.49
2018-06-29T09:36:14.930Z,96846.56
2018-06-29T09:38:44.169Z,96850.64
2018-06-29T09:41:13.312Z,96852.44
2018-06-29T09:43:42.530Z,96852.17
2018-06-29T09:46:11.683Z,96852.56
2018-06-29T09:48:40.969Z,96848.47
2018-06-29T09:51:10.303Z,96847.18
2018-06-29T09:53:39.458Z,96857.61
2018-06-29T09:56:08.632Z,96854.80
2018-06-29T09:58:37.817Z,96849.62
2018-06-29T10:01:07.279Z,96845.50
2018-06-29T10:03:36.440Z,96854.45
2018-06-29T10:06:05.602Z,96848.64
2018-06-29T10:08:34.866Z,96845.17
2018-06-29T10:11:04.034Z,96840.34
2018-06-29T10:13:33.148Z,96838.43
2018-06-29T10:16:02.265Z,96844.72
2018-06-29T10:18:31.458Z,96838.27
2018-06-29T10:21:00.606Z,96838.87
2018-06-29T10:23:29.842Z,96840.33
2018-06-29T10:25:58.994Z,96842.28
2018-06-29T10:28:28.233Z,96831.22
2018-06-29T10:30:57.438Z,96831.44
2018-06-29T10:33:26.547Z,96831.08
2018-06-29T10:35:55.787Z,96833.56
2018-06-29T10:38:24.923Z,96834.22
2018-06-29T10:40:54.079Z,96831.35
2018-06-29T10:43:23.270Z,96835.23
2018-06-29T10:45:52.413Z,96833.95
2018-06-29T10:48:21.610Z,96833.72
2018-06-29T10:50:50.811Z,96828.92
2018-06-29T10:53:19.949Z,96824.56
2018-06-29T10:55:49.132Z,96827.94
2018-06-29T10:58:18.259Z,96827.43
2018-06-29T11:00:47.423Z,96815.56
2018-06-29T11:03:16.569Z,96820.86
2018-06-29T11:05:45.687Z,96814.39
2018-06-29T11:08:14.794Z,96813.69
2018-06-29T11:10:43.946Z,96819.03
2018-06-29T11:13:13.241Z,96813.70
2018-06-29T11:15:42.909Z,96814.63
2018-06-29T11:18:12.071Z,96809.82
2018-06-29T11:20:41.222Z,96806.59
2018-06-29T11:23:10.386Z,96811.52
2018-06-29T11:25:39.683Z,96820.78
2018-06-29T11:28:08.840Z,96818.55
2018-06-29T11:30:38.023Z,96818.27
2018-06-29T11:33:07.220Z,96810.73
2018-06-29T11:35:36.396Z,96804.64
2018-06-29T11:38:05.557Z,96808.89
2018-06-29T11:40:34.783Z,96801.84
2018-06-29T11:43:04.015Z,96802.20
2018-06-29T11:45:33.223Z,96801.52
2018-06-29T11:48:02.470Z,96801.52
2018-06-29T11:50:31.850Z,96798.16
2018-06-29T11:53:01.041Z,96795.51
2018-06-29T11:55:30.229Z,96802.75
2018-06-29T11:57:59.383Z,96806.61
2018-06-29T12:00:28.680Z,96805.17
2018-06-29T12:02:57.909Z,96807.41
2018-06-29T12:05:27.125Z,96807.34
2018-06-29T12:07:56.303Z,96808.34
2018-06-29T12:10:25.433Z,96801.34
2018-06-29T12:12:54.698Z,96804.19
2018-06-29T12:15:23.839Z,96802.14
2018-06-29T12:17:53.110Z,96800.75
2018-06-29T12:20:22.240Z,96795.64
2018-06-29T12:22:51.406Z,96797.77
2018-06-29T12:25:20.581Z,96797.41
2018-06-29T12:27:49.694Z,96801.91
2018-06-29T12:30:18.881Z,96807.16
2018-06-29T12:32:48.027Z,96803.69
2018-06-29T12:35:17.244Z,96803.49
2018-06-29T12:37:46.418Z,96799.63
2018-06-29T12:40:15.707Z,96795.59
2018-06-29T12:42:45.108Z,96792.97
2018-06-29T12:45:14.114Z,96780.81
2018-06-29T12:47:43.300Z,96778.63
2018-06-29T12:50:12.457Z,96780.81
2018-06-29T12:52:41.556Z,96776.65
2018-06-29T12:55:10.877Z,96768.41
2018-06-29T12:57:40.109Z,96773.59
2018-06-29T13:00:09.287Z,96778.19
2018-06-29T13:02:38.436Z,96777.89
2018-06-29T13:05:07.655Z,96780.33
2018-06-29T13:07:36.787Z,96782.00
2018-06-29T13:10:07.083Z,96776.20
2018-06-29T13:12:36.218Z,96770.70
2018-06-29T13:15:05.883Z,96773.59
2018-06-29T13:17:34.983Z,96771.60
2018-06-29T13:20:04.731Z,96765.37
2018-06-29T13:22:33.878Z,96767.43
2018-06-29T13:25:03.118Z,96768.87
2018-06-29T13:27:32.261Z,96762.38
2018-06-29T13:30:01.396Z,96771.44
2018-06-29T13:32:30.566Z,96768.25
2018-06-29T13:34:59.727Z,96762.15
2018-06-29T13:37:29.011Z,96756.95
2018-06-29T13:39:58.131Z,96764.99
2018-06-29T13:42:27.312Z,96768.41
2018-06-29T13:44:56.536Z,96766.27
2018-06-29T13:47:25.683Z,96758.77
2018-06-29T13:49:54.812Z,96765.66
2018-06-29T13:52:24.046Z,96758.69
2018-06-29T13:54:53.352Z,96755.88
2018-06-29T13:57:22.469Z,96760.63
2018-06-29T13:59:51.659Z,96754.90
2018-06-29T14:02:20.870Z,96749.19
2018-06-29T14:04:50.083Z,96748.94
2018-06-29T14:07:19.265Z,96748.84
2018-06-29T14:09:48.412Z,96748.69
2018-06-29T14:12:17.565Z,96749.70
2018-06-29T14:14:46.831Z,96744.73
2018-06-29T14:17:15.959Z,96734.59
2018-06-29T14:19:45.125Z,96738.44
2018-06-29T14:22:14.577Z,96734.53
2018-06-29T14:24:43.708Z,96738.50
2018-06-29T14:27:13.025Z,96736.41
2018-06-29T14:29:42.349Z,96734.84
2018-06-29T14:32:11.554Z,96731.52
2018-06-29T14:34:40.819Z,96721.30
2018-06-29T14:37:09.948Z,96714.42
2018-06-29T14:39:39.224Z,96710.76
2018-06-29T14:42:08.459Z,96707.67
2018-06-29T14:44:37.682Z,96701.02
2018-06-29T14:47:07.016Z,96700.39
2018-06-29T14:49:36.275Z,96693.30
2018-06-29T14:52:05.529Z,96697.60
2018-06-29T14:54:34.751Z,96694.36
2018-06-29T14:57:04.178Z,96695.40
2018-06-29T14:59:33.411Z,96687.74
2018-06-29T15:02:02.557Z,96692.16
2018-06-29T15:04:31.732Z,96687.18
2018-06-29T15:07:00.896Z,96691.55
2018-06-29T15:09:30.194Z,96687.13
2018-06-29T15:11:59.453Z,96689.75
2018-06-29T15:14:28.592Z,96684.45
2018-06-29T15:16:57.845Z,96689.50
2018-06-29T15:19:27.040Z,96691.39
2018-06-29T15:21:56.266Z,96677.09
2018-06-29T15:24:25.484Z,96677.84
2018-06-29T15:26:54.699Z,96677.26
2018-06-29T15:29:23.887Z,96667.50
2018-06-29T15:31:53.140Z,96662.54
2018-06-29T15:34:22.354Z,96667.58
2018-06-29T15:36:51.564Z,96664.85
2018-06-29T15:39:20.753Z,96668.41
2018-06-29T15:41:50.030Z,96660.31
2018-06-29T15:44:19.234Z,96658.94
2018-06-29T15:46:48.416Z,96655.70
2018-06-29T15:49:17.619Z,96651.37
2018-06-29T15:51:46.797Z,96658.73
2018-06-29T15:54:16.007Z,96654.28
2018-06-29T15:56:45.220Z,96657.98
2018-06-29T15:59:14.414Z,96656.78
2018-06-29T16:01:43.633Z,96658.33
2018-06-29T16:04:12.889Z,96655.36
2018-06-29T16:06:42.060Z,96654.27
2018-06-29T16:09:11.667Z,96656.51
2018-06-29T16:11:40.957Z,96659.04
2018-06-29T16:14:10.179Z,96662.80
2018-06-29T16:16:39.420Z,96659.41
2018-06-29T16:19:08.606Z,96656.14
2018-06-29T16:21:37.911Z,96654.13
2018-06-29T16:24:07.176Z,96649.94
2018-06-29T16:26:36.363Z,96645.55
2018-06-29T16:29:05.651Z,96648.13
2018-06-29T16:31:35.033Z,96645.80
2018-06-29T16:34:04.344Z,96649.13
2018-06-29T16:36:33.558Z,96649.02
2018-06-29T16:39:02.861Z,96648.92
2018-06-29T16:41:32.110Z,96656.36
2018-06-29T16:44:01.332Z,96652.22
2018-06-29T16:46:30.640Z,96656.17
2018-06-29T16:48:59.936Z,96657.14
2018-06-29T16:51:29.204Z,96653.44
2018-06-29T16:53:59.323Z,96658.42
2018-06-29T16:56:28.590Z,96658.06
2018-06-29T16:58:57.952Z,96659.72
2018-06-29T17:01:27.133Z,96663.42
2018-06-29T17:03:56.359Z,96671.42
2018-06-29T17:06:25.587Z,96666.39
2018-06-29T17:08:54.734Z,96663.56
2018-06-29T17:11:23.970Z,96663.31
2018-06-29T17:13:53.454Z,96663.83
2018-06-29T17:16:22.668Z,96668.56
2018-06-29T17:18:52.023Z,96661.94
2018-06-29T17:21:21.226Z,96674.00
2018-06-29T17:23:50.421Z,96673.55
2018-06-29T17:26:19.621Z,96677.24
2018-06-29T17:28:48.884Z,96685.30
2018-06-29T17:31:18.021Z,96677.60
2018-06-29T17:33:47.421Z,96678.57
2018-06-29T17:36:16.533Z,96680.13
2018-06-29T17:38:45.716Z,96678.96
2018-06-29T17:41:14.911Z,96695.70
2018-06-29T17:43:44.104Z,96690.39
2018-06-29T17:46:13.453Z,96703.94
2018-06-29T17:48:42.680Z,96718.16
2018-06-29T17:51:11.925Z,96721.90
2018-06-29T17:53:41.092Z,96719.60
2018-06-29T17:56:10.436Z,96718.58
2018-06-29T17:58:39.777Z,96711.02
2018-06-29T18:01:09.123Z,96700.87
2018-06-29T18:03:38.297Z,96702.49
2018-06-29T18:06:07.476Z,96695.25
2018-06-29T18:08:36.797Z,96703.50
2018-06-29T18:11:06.036Z,96703.23
2018-06-29T18:13:35.248Z,96709.48
2018-06-29T18:16:04.525Z,96706.68
2018-06-29T18:18:33.643Z,96713.63
2018-06-29T18:21:02.951Z,96716.77
2018-06-29T18:23:32.252Z,96719.39
2018-06-29T18:26:01.543Z,96721.17
2018-06-29T18:28:30.884Z,96734.48
2018-06-29T18:31:00.072Z,96731.33
2018-06-29T18:33:29.332Z,96730.22
2018-06-29T18:35:58.524Z,96728.83
2018-06-29T18:38:27.707Z,96725.58
2018-06-29T18:40:56.940Z,96728.34
2018-06-29T18:43:26.157Z,96720.80
2018-06-29T18:45:55.401Z,96731.34
2018-06-29T18:48:24.642Z,96728.77
2018-06-29T18:50:53.870Z,96726.13
2018-06-29T18:53:23.128Z,96730.85
2018-06-29T18:55:52.402Z,96728.27
2018-06-29T18:58:21.653Z,96733.43
2018-06-29T19:00:50.788Z,96729.70
2018-06-29T19:03:20.011Z,96732.45
2018-06-29T19:05:49.187Z,96730.98
2018-06-29T19:08:18.459Z,96731.15
2018-06-29T19:10:47.610Z,96731.83
2018-06-29T19:13:16.900Z,96733.33
2018-06-29T19:15:46.237Z,96731.73
2018-06-29T19:18:15.530Z,96735.29
2018-06-29T19:20:44.776Z,96733.73
2018-06-29T19:23:14.137Z,96733.67
2018-06-29T19:25:43.372Z,96736.30
2018-06-29T19:28:12.552Z,96741.45
2018-06-29T19:30:41.760Z,96739.64
2018-06-29T19:33:11.179Z,96736.80
2018-06-29T19:35:40.455Z,96741.53
2018-06-29T19:38:09.704Z,96735.55
2018-06-29T19:40:38.918Z,96742.51
2018-06-29T19:43:08.117Z,96748.45
2018-06-29T19:45:37.404Z,96755.49
2018-06-29T19:48:06.617Z,96754.33
2018-06-29T19:50:35.953Z,96758.58
2018-06-29T19:53:05.206Z,96761.59
2018-06-29T19:55:34.437Z,96763.52
2018-06-29T19:58:03.685Z,96760.50
2018-06-29T20:00:32.919Z,96757.92
2018-06-29T20:03:02.202Z,96758.73
2018-06-29T20:05:31.457Z,96758.62
2018-06-29T20:08:00.700Z,96766.73
2018-06-29T20:10:29.948Z,96764.58
2018-06-29T20:12:59.228Z,96771.94
2018-06-29T20:15:28.548Z,96767.75
2018-06-29T20:17:57.804Z,96771.98
2018-06-29T20:20:27.047Z,96764.37
2018-06-29T20:22:56.253Z,96763.08
2018-06-29T20:25:25.579Z,96764.44
2018-06-29T20:27:55.250Z,96756.81
2018-06-29T20:30:24.518Z,96766.31
2018-06-29T20:32:53.834Z,96759.49
2018-06-29T20:35:23.063Z,96760.36
2018-06-29T20:37:52.240Z,96764.38
2018-06-29T20:40:21.470Z,96766.58
2018-06-29T20:42:50.627Z,96765.30
2018-06-29T20:45:19.858Z,96762.82
2018-06-29T20:47:49.059Z,96765.83
2018-06-29T20:50:18.392Z,96768.45
2018-06-29T20:52:47.628Z,96763.41
2018-06-29T20:55:16.792Z,96766.85
2018-06-29T20:57:46.071Z,96770.77
2018-06-29T21:00:15.296Z,96769.52
2018-06-29T21:02:44.660Z,96769.57
2018-06-29T21:05:13.904Z,96765.34
2018-06-29T21:07:43.095Z,96769.69
2018-06-29T21:10:12.345Z,96764.54
2018-06-29T21:12:41.575Z,96771.78
2018-06-29T21:15:10.868Z,96762.77
2018-06-29T21:17:40.078Z,96767.91
2018-06-29T21:20:09.315Z,96766.63
2018-06-29T21:22:38.491Z,96768.72
2018-06-29T21:25:07.794Z,96770.86
2018-06-29T21:27:36.931Z,96771.78
2018-06-29T21:30:06.839Z,96773.87
2018-06-29T21:32:36.125Z,96773.06
2018-06-29T21:35:05.367Z,96773.87
2018-06-29T21:37:34.517Z,96776.48
2018-06-29T21:40:03.693Z,96776.81
2018-06-29T21:42:32.856Z,96776.86
2018-06-29T21:45:02.117Z,96773.05
2018-06-29T21:47:31.208Z,96766.34
2018-06-29T21:50:00.466Z,96768.11
2018-06-29T21:52:29.789Z,96770.73
2018-06-29T21:56:23.472Z,96771.66
2018-06-29T21:58:53.023Z,96763.61
2018-06-29T22:01:22.260Z,96758.56
2018-06-29T22:03:51.485Z,96757.37
2018-06-29T22:06:20.694Z,96755.28
2018-06-29T22:08:49.880Z,96762.29
2018-06-29T22:11:19.081Z,96766.20
2018-06-29T22:13:48.320Z,96759.45
2018-06-29T22:16:17.539Z,96763.83
2018-06-29T22:18:46.764Z,96761.78
2018-06-29T22:21:15.937Z,96765.70
2018-06-29T22:23:45.209Z,96765.75
2018-06-29T22:26:14.371Z,96762.31
2018-06-29T22:28:43.604Z,96764.88
2018-06-29T22:31:12.956Z,96760.51
2018-06-29T22:33:42.109Z,96757.50
2018-06-29T22:36:11.393Z,96752.84
2018-06-29T22:38:40.628Z,96753.78
2018-06-29T22:41:09.838Z,96759.77
2018-06-29T22:43:39.056Z,96752.14
2018-06-29T22:46:08.303Z,96757.39
2018-06-29T22:48:37.467Z,96760.01
2018-06-29T22:51:06.818Z,96754.95
2018-06-29T22:53:35.980Z,96753.77
2018-06-29T22:56:05.222Z,96751.67
2018-06-29T22:58:34.429Z,96755.20
2018-06-29T23:01:03.604Z,96750.15
2018-06-29T23:03:38.153Z,96744.29
2018-06-29T23:06:07.341Z,96737.53
2018-06-29T23:08:36.509Z,96745.29
2018-06-29T23:11:05.742Z,96746.59
2018-06-29T23:13:34.974Z,96738.96
2018-06-29T23:16:04.188Z,96742.09
2018-06-29T23:18:33.402Z,96742.14
2018-06-29T23:21:02.599Z,96743.95
2018-06-29T23:23:31.797Z,96733.72
2018-06-29T23:26:01.015Z,96742.42
2018-06-29T23:28:30.261Z,96731.33
2018-06-29T23:30:59.391Z,96729.66
2018-06-29T23:33:28.592Z,96726.75
2018-06-29T23:35:57.856Z,96723.84
2018-06-29T23:38:27.068Z,96718.80
2018-06-29T23:40:56.833Z,96719.66
2018-06-29T23:43:26.072Z,96723.17
2018-06-29T23:45:55.488Z,96723.18
2018-06-29T23:48:24.714Z,96725.83
2018-06-29T23:50:53.914Z,96727.20
2018-06-29T23:53:23.157Z,96720.05
2018-06-29T23:55:52.286Z,96721.81
2018-06-29T23:58:21.492Z,96719.27
